sensor_id;sensor_type;location;lat;lon;timestamp;P1;durP1;ratioP1;P2;durP2;ratioP2
9160;SDS011;4615;51.340;8.288;2023-06-14T00:01:38;6.80;;;4.35;;
9160;SDS011;4615;51.340;8.288;2023-06-14T00:04:04;4.85;;;3.95;;
9160;SDS011;4615;51.340;8.288;2023-06-14T00:06:31;5.35;;;4.03;;
9160;SDS011;4615;51.340;8.288;2023-06-14T00:08:58;4.72;;;4.22;;
9160;SDS011;4615;51.340;8.288;2023-06-14T00:11:26;5.88;;;4.00;;
9160;SDS011;4615;51.340;8.288;2023-06-14T00:13:53;5.00;;;3.80;;
9160;SDS011;4615;51.340;8.288;2023-06-14T00:16:19;4.33;;;3.90;;
9160;SDS011;4615;51.340;8.288;2023-06-14T00:18:46;5.57;;;3.70;;
9160;SDS011;4615;51.340;8.288;2023-06-14T00:21:12;4.30;;;3.80;;
9160;SDS011;4615;51.340;8.288;2023-06-14T00:23:39;4.50;;;4.00;;
9160;SDS011;4615;51.340;8.288;2023-06-14T00:26:05;6.90;;;3.92;;
9160;SDS011;4615;51.340;8.288;2023-06-14T00:28:33;5.70;;;4.20;;
9160;SDS011;4615;51.340;8.288;2023-06-14T00:30:59;4.88;;;3.72;;
9160;SDS011;4615;51.340;8.288;2023-06-14T00:33:26;5.82;;;3.88;;
9160;SDS011;4615;51.340;8.288;2023-06-14T00:35:52;6.15;;;3.63;;
9160;SDS011;4615;51.340;8.288;2023-06-14T00:38:19;5.73;;;3.93;;
9160;SDS011;4615;51.340;8.288;2023-06-14T00:40:46;4.72;;;4.30;;
9160;SDS011;4615;51.340;8.288;2023-06-14T00:43:12;6.77;;;4.83;;
9160;SDS011;4615;51.340;8.288;2023-06-14T00:45:40;5.38;;;4.88;;
9160;SDS011;4615;51.340;8.288;2023-06-14T00:48:06;5.90;;;5.13;;
9160;SDS011;4615;51.340;8.288;2023-06-14T00:50:34;7.37;;;5.50;;
9160;SDS011;4615;51.340;8.288;2023-06-14T00:53:01;6.45;;;5.45;;
9160;SDS011;4615;51.340;8.288;2023-06-14T00:55:28;6.38;;;5.50;;
9160;SDS011;4615;51.340;8.288;2023-06-14T00:57:54;7.55;;;5.72;;
9160;SDS011;4615;51.340;8.288;2023-06-14T01:00:21;7.30;;;5.40;;
9160;SDS011;4615;51.340;8.288;2023-06-14T01:02:49;7.72;;;5.65;;
9160;SDS011;4615;51.340;8.288;2023-06-14T01:05:16;7.60;;;5.63;;
9160;SDS011;4615;51.340;8.288;2023-06-14T01:07:55;7.00;;;5.57;;
9160;SDS011;4615;51.340;8.288;2023-06-14T01:10:29;6.68;;;5.38;;
9160;SDS011;4615;51.340;8.288;2023-06-14T01:12:58;7.57;;;5.57;;
9160;SDS011;4615;51.340;8.288;2023-06-14T01:15:28;6.90;;;5.38;;
9160;SDS011;4615;51.340;8.288;2023-06-14T01:17:57;7.47;;;5.30;;
9160;SDS011;4615;51.340;8.288;2023-06-14T01:20:28;8.15;;;5.20;;
9160;SDS011;4615;51.340;8.288;2023-06-14T01:22:57;6.83;;;5.07;;
9160;SDS011;4615;51.340;8.288;2023-06-14T01:25:23;7.03;;;4.90;;
9160;SDS011;4615;51.340;8.288;2023-06-14T01:27:51;6.95;;;5.85;;
9160;SDS011;4615;51.340;8.288;2023-06-14T01:30:17;7.20;;;5.60;;
9160;SDS011;4615;51.340;8.288;2023-06-14T01:32:46;7.10;;;5.55;;
9160;SDS011;4615;51.340;8.288;2023-06-14T01:35:13;8.85;;;6.15;;
9160;SDS011;4615;51.340;8.288;2023-06-14T01:37:39;8.82;;;5.90;;
9160;SDS011;4615;51.340;8.288;2023-06-14T01:40:08;7.97;;;5.90;;
9160;SDS011;4615;51.340;8.288;2023-06-14T01:42:36;7.88;;;5.60;;
9160;SDS011;4615;51.340;8.288;2023-06-14T01:45:03;11.20;;;6.15;;
9160;SDS011;4615;51.340;8.288;2023-06-14T01:47:30;8.27;;;5.90;;
9160;SDS011;4615;51.340;8.288;2023-06-14T01:49:57;8.00;;;5.53;;
9160;SDS011;4615;51.340;8.288;2023-06-14T01:52:23;7.35;;;5.00;;
9160;SDS011;4615;51.340;8.288;2023-06-14T01:54:50;7.55;;;5.40;;
9160;SDS011;4615;51.340;8.288;2023-06-14T01:57:18;9.75;;;5.50;;
9160;SDS011;4615;51.340;8.288;2023-06-14T01:59:45;8.02;;;5.40;;
9160;SDS011;4615;51.340;8.288;2023-06-14T02:02:13;6.78;;;5.47;;
9160;SDS011;4615;51.340;8.288;2023-06-14T02:04:39;7.15;;;5.75;;
9160;SDS011;4615;51.340;8.288;2023-06-14T02:07:06;7.65;;;5.90;;
9160;SDS011;4615;51.340;8.288;2023-06-14T02:09:33;8.68;;;6.05;;
9160;SDS011;4615;51.340;8.288;2023-06-14T02:11:59;7.40;;;5.50;;
9160;SDS011;4615;51.340;8.288;2023-06-14T02:14:27;7.28;;;5.70;;
9160;SDS011;4615;51.340;8.288;2023-06-14T02:16:54;7.63;;;6.20;;
9160;SDS011;4615;51.340;8.288;2023-06-14T02:19:20;10.23;;;6.28;;
9160;SDS011;4615;51.340;8.288;2023-06-14T02:21:46;9.15;;;6.40;;
9160;SDS011;4615;51.340;8.288;2023-06-14T02:24:13;7.45;;;5.63;;
9160;SDS011;4615;51.340;8.288;2023-06-14T02:26:39;7.97;;;5.85;;
9160;SDS011;4615;51.340;8.288;2023-06-14T02:29:06;6.03;;;5.20;;
9160;SDS011;4615;51.340;8.288;2023-06-14T02:31:35;7.28;;;5.03;;
9160;SDS011;4615;51.340;8.288;2023-06-14T02:34:02;7.00;;;4.90;;
9160;SDS011;4615;51.340;8.288;2023-06-14T02:36:28;5.93;;;4.78;;
9160;SDS011;4615;51.340;8.288;2023-06-14T02:38:55;6.87;;;5.00;;
9160;SDS011;4615;51.340;8.288;2023-06-14T02:41:22;6.67;;;5.60;;
9160;SDS011;4615;51.340;8.288;2023-06-14T02:43:49;6.20;;;4.95;;
9160;SDS011;4615;51.340;8.288;2023-06-14T02:46:15;9.23;;;5.50;;
9160;SDS011;4615;51.340;8.288;2023-06-14T02:48:43;6.78;;;5.03;;
9160;SDS011;4615;51.340;8.288;2023-06-14T02:51:10;6.43;;;5.20;;
9160;SDS011;4615;51.340;8.288;2023-06-14T02:53:37;5.78;;;5.10;;
9160;SDS011;4615;51.340;8.288;2023-06-14T02:56:04;7.72;;;5.20;;
9160;SDS011;4615;51.340;8.288;2023-06-14T02:58:30;7.45;;;4.82;;
9160;SDS011;4615;51.340;8.288;2023-06-14T03:00:58;5.72;;;5.00;;
9160;SDS011;4615;51.340;8.288;2023-06-14T03:03:28;7.00;;;5.18;;
9160;SDS011;4615;51.340;8.288;2023-06-14T03:05:56;5.85;;;5.30;;
9160;SDS011;4615;51.340;8.288;2023-06-14T03:08:23;5.97;;;5.05;;
9160;SDS011;4615;51.340;8.288;2023-06-14T03:10:52;6.32;;;5.18;;
9160;SDS011;4615;51.340;8.288;2023-06-14T03:13:18;6.47;;;5.07;;
9160;SDS011;4615;51.340;8.288;2023-06-14T03:15:46;5.45;;;4.93;;
9160;SDS011;4615;51.340;8.288;2023-06-14T03:18:15;5.47;;;4.70;;
9160;SDS011;4615;51.340;8.288;2023-06-14T03:20:41;6.75;;;4.70;;
9160;SDS011;4615;51.340;8.288;2023-06-14T03:23:12;4.95;;;4.45;;
9160;SDS011;4615;51.340;8.288;2023-06-14T03:25:38;6.13;;;4.75;;
9160;SDS011;4615;51.340;8.288;2023-06-14T03:28:07;7.05;;;4.72;;
9160;SDS011;4615;51.340;8.288;2023-06-14T03:30:33;5.60;;;4.97;;
9160;SDS011;4615;51.340;8.288;2023-06-14T03:33:00;5.95;;;4.90;;
9160;SDS011;4615;51.340;8.288;2023-06-14T03:35:27;5.75;;;4.80;;
9160;SDS011;4615;51.340;8.288;2023-06-14T03:37:54;6.72;;;5.03;;
9160;SDS011;4615;51.340;8.288;2023-06-14T03:40:22;6.20;;;4.78;;
9160;SDS011;4615;51.340;8.288;2023-06-14T03:42:50;6.50;;;4.80;;
9160;SDS011;4615;51.340;8.288;2023-06-14T03:45:17;4.57;;;3.83;;
9160;SDS011;4615;51.340;8.288;2023-06-14T03:47:43;7.55;;;4.20;;
9160;SDS011;4615;51.340;8.288;2023-06-14T03:50:10;5.00;;;4.00;;
9160;SDS011;4615;51.340;8.288;2023-06-14T03:52:37;6.00;;;3.60;;
9160;SDS011;4615;51.340;8.288;2023-06-14T03:55:04;3.60;;;3.10;;
9160;SDS011;4615;51.340;8.288;2023-06-14T03:57:32;5.47;;;3.47;;
9160;SDS011;4615;51.340;8.288;2023-06-14T03:59:58;4.55;;;3.22;;
9160;SDS011;4615;51.340;8.288;2023-06-14T04:02:25;4.13;;;2.90;;
9160;SDS011;4615;51.340;8.288;2023-06-14T04:04:53;4.65;;;3.22;;
9160;SDS011;4615;51.340;8.288;2023-06-14T04:07:20;6.22;;;3.28;;
9160;SDS011;4615;51.340;8.288;2023-06-14T04:09:46;4.10;;;2.90;;
9160;SDS011;4615;51.340;8.288;2023-06-14T04:12:13;3.95;;;3.08;;
9160;SDS011;4615;51.340;8.288;2023-06-14T04:14:40;3.85;;;3.20;;
9160;SDS011;4615;51.340;8.288;2023-06-14T04:17:07;4.30;;;2.92;;
9160;SDS011;4615;51.340;8.288;2023-06-14T04:19:33;4.28;;;2.90;;
9160;SDS011;4615;51.340;8.288;2023-06-14T04:22:00;6.18;;;3.40;;
9160;SDS011;4615;51.340;8.288;2023-06-14T04:24:27;5.03;;;2.80;;
9160;SDS011;4615;51.340;8.288;2023-06-14T04:26:57;3.83;;;3.10;;
9160;SDS011;4615;51.340;8.288;2023-06-14T04:29:24;4.93;;;3.30;;
9160;SDS011;4615;51.340;8.288;2023-06-14T04:31:53;5.13;;;2.95;;
9160;SDS011;4615;51.340;8.288;2023-06-14T04:34:23;4.75;;;3.40;;
9160;SDS011;4615;51.340;8.288;2023-06-14T04:36:54;3.92;;;3.05;;
9160;SDS011;4615;51.340;8.288;2023-06-14T04:39:21;5.20;;;3.10;;
9160;SDS011;4615;51.340;8.288;2023-06-14T04:41:47;3.35;;;2.90;;
9160;SDS011;4615;51.340;8.288;2023-06-14T04:44:18;3.95;;;3.08;;
9160;SDS011;4615;51.340;8.288;2023-06-14T04:46:44;3.88;;;3.20;;
9160;SDS011;4615;51.340;8.288;2023-06-14T04:49:13;3.43;;;2.90;;
9160;SDS011;4615;51.340;8.288;2023-06-14T04:51:40;3.30;;;2.97;;
9160;SDS011;4615;51.340;8.288;2023-06-14T04:54:07;4.53;;;3.13;;
9160;SDS011;4615;51.340;8.288;2023-06-14T04:56:35;3.25;;;2.92;;
9160;SDS011;4615;51.340;8.288;2023-06-14T04:59:02;4.45;;;3.20;;
9160;SDS011;4615;51.340;8.288;2023-06-14T05:01:29;5.82;;;3.20;;
9160;SDS011;4615;51.340;8.288;2023-06-14T05:03:56;4.72;;;3.53;;
9160;SDS011;4615;51.340;8.288;2023-06-14T05:06:24;4.45;;;3.10;;
9160;SDS011;4615;51.340;8.288;2023-06-14T05:08:51;3.63;;;2.90;;
9160;SDS011;4615;51.340;8.288;2023-06-14T05:11:17;5.47;;;2.70;;
9160;SDS011;4615;51.340;8.288;2023-06-14T05:13:44;4.65;;;3.10;;
9160;SDS011;4615;51.340;8.288;2023-06-14T05:16:11;6.75;;;3.20;;
9160;SDS011;4615;51.340;8.288;2023-06-14T05:18:40;4.53;;;3.00;;
9160;SDS011;4615;51.340;8.288;2023-06-14T05:21:06;4.45;;;2.83;;
9160;SDS011;4615;51.340;8.288;2023-06-14T05:23:35;5.13;;;3.15;;
9160;SDS011;4615;51.340;8.288;2023-06-14T05:26:01;3.20;;;2.90;;
9160;SDS011;4615;51.340;8.288;2023-06-14T05:28:29;3.88;;;3.00;;
9160;SDS011;4615;51.340;8.288;2023-06-14T05:30:56;4.97;;;2.90;;
9160;SDS011;4615;51.340;8.288;2023-06-14T05:33:23;4.68;;;3.10;;
9160;SDS011;4615;51.340;8.288;2023-06-14T05:35:50;4.18;;;3.05;;
9160;SDS011;4615;51.340;8.288;2023-06-14T05:38:16;4.70;;;3.22;;
9160;SDS011;4615;51.340;8.288;2023-06-14T05:40:44;3.60;;;2.92;;
9160;SDS011;4615;51.340;8.288;2023-06-14T05:43:11;3.40;;;2.83;;
9160;SDS011;4615;51.340;8.288;2023-06-14T05:45:37;3.77;;;2.87;;
9160;SDS011;4615;51.340;8.288;2023-06-14T05:48:04;6.20;;;3.00;;
9160;SDS011;4615;51.340;8.288;2023-06-14T05:50:30;5.20;;;2.87;;
9160;SDS011;4615;51.340;8.288;2023-06-14T05:52:56;5.07;;;2.88;;
9160;SDS011;4615;51.340;8.288;2023-06-14T05:55:23;4.00;;;2.92;;
9160;SDS011;4615;51.340;8.288;2023-06-14T05:57:51;5.97;;;2.90;;
9160;SDS011;4615;51.340;8.288;2023-06-14T06:00:18;3.35;;;2.88;;
9160;SDS011;4615;51.340;8.288;2023-06-14T06:02:45;3.05;;;2.70;;
9160;SDS011;4615;51.340;8.288;2023-06-14T06:05:12;4.28;;;2.83;;
9160;SDS011;4615;51.340;8.288;2023-06-14T06:07:40;4.07;;;2.70;;
9160;SDS011;4615;51.340;8.288;2023-06-14T06:10:07;3.85;;;2.78;;
9160;SDS011;4615;51.340;8.288;2023-06-14T06:12:34;3.40;;;2.55;;
9160;SDS011;4615;51.340;8.288;2023-06-14T06:15:02;5.75;;;2.80;;
9160;SDS011;4615;51.340;8.288;2023-06-14T06:17:29;2.85;;;2.45;;
9160;SDS011;4615;51.340;8.288;2023-06-14T06:19:55;2.65;;;2.20;;
9160;SDS011;4615;51.340;8.288;2023-06-14T06:22:21;3.80;;;2.27;;
9160;SDS011;4615;51.340;8.288;2023-06-14T06:24:48;3.47;;;2.30;;
9160;SDS011;4615;51.340;8.288;2023-06-14T06:27:14;3.05;;;2.20;;
9160;SDS011;4615;51.340;8.288;2023-06-14T06:29:41;3.30;;;2.25;;
9160;SDS011;4615;51.340;8.288;2023-06-14T06:32:09;3.50;;;2.03;;
9160;SDS011;4615;51.340;8.288;2023-06-14T06:34:35;3.37;;;2.20;;
9160;SDS011;4615;51.340;8.288;2023-06-14T06:37:02;7.25;;;2.00;;
9160;SDS011;4615;51.340;8.288;2023-06-14T06:39:29;3.13;;;2.15;;
9160;SDS011;4615;51.340;8.288;2023-06-14T06:41:55;3.10;;;2.10;;
9160;SDS011;4615;51.340;8.288;2023-06-14T06:44:22;2.53;;;1.98;;
9160;SDS011;4615;51.340;8.288;2023-06-14T06:46:48;3.10;;;1.90;;
9160;SDS011;4615;51.340;8.288;2023-06-14T06:49:16;4.60;;;2.00;;
9160;SDS011;4615;51.340;8.288;2023-06-14T06:51:43;2.22;;;1.80;;
9160;SDS011;4615;51.340;8.288;2023-06-14T06:54:10;2.15;;;1.80;;
9160;SDS011;4615;51.340;8.288;2023-06-14T06:56:36;2.10;;;1.90;;
9160;SDS011;4615;51.340;8.288;2023-06-14T06:59:03;4.13;;;2.10;;
9160;SDS011;4615;51.340;8.288;2023-06-14T07:01:29;3.92;;;2.20;;
9160;SDS011;4615;51.340;8.288;2023-06-14T07:03:58;2.30;;;2.10;;
9160;SDS011;4615;51.340;8.288;2023-06-14T07:06:26;3.08;;;2.20;;
9160;SDS011;4615;51.340;8.288;2023-06-14T07:08:53;2.97;;;1.98;;
9160;SDS011;4615;51.340;8.288;2023-06-14T07:11:19;2.50;;;2.00;;
9160;SDS011;4615;51.340;8.288;2023-06-14T07:13:46;3.00;;;2.10;;
9160;SDS011;4615;51.340;8.288;2023-06-14T07:16:12;2.75;;;1.92;;
9160;SDS011;4615;51.340;8.288;2023-06-14T07:18:39;3.15;;;1.83;;
9160;SDS011;4615;51.340;8.288;2023-06-14T07:21:05;3.07;;;2.10;;
9160;SDS011;4615;51.340;8.288;2023-06-14T07:23:33;2.30;;;2.10;;
9160;SDS011;4615;51.340;8.288;2023-06-14T07:25:59;2.95;;;2.03;;
9160;SDS011;4615;51.340;8.288;2023-06-14T07:28:26;2.95;;;2.03;;
9160;SDS011;4615;51.340;8.288;2023-06-14T07:30:52;2.45;;;1.90;;
9160;SDS011;4615;51.340;8.288;2023-06-14T07:33:18;2.17;;;1.80;;
9160;SDS011;4615;51.340;8.288;2023-06-14T07:35:45;1.90;;;1.70;;
9160;SDS011;4615;51.340;8.288;2023-06-14T07:38:13;2.17;;;1.98;;
9160;SDS011;4615;51.340;8.288;2023-06-14T07:40:40;2.35;;;2.05;;
9160;SDS011;4615;51.340;8.288;2023-06-14T07:43:07;2.27;;;1.80;;
9160;SDS011;4615;51.340;8.288;2023-06-14T07:45:33;2.50;;;1.70;;
9160;SDS011;4615;51.340;8.288;2023-06-14T07:48:00;3.50;;;1.80;;
9160;SDS011;4615;51.340;8.288;2023-06-14T07:50:26;2.30;;;1.80;;
9160;SDS011;4615;51.340;8.288;2023-06-14T07:52:52;2.00;;;1.80;;
9160;SDS011;4615;51.340;8.288;2023-06-14T07:55:19;1.90;;;1.80;;
9160;SDS011;4615;51.340;8.288;2023-06-14T07:57:46;4.63;;;1.95;;
9160;SDS011;4615;51.340;8.288;2023-06-14T08:00:13;3.20;;;1.80;;
9160;SDS011;4615;51.340;8.288;2023-06-14T08:02:40;3.97;;;1.73;;
9160;SDS011;4615;51.340;8.288;2023-06-14T08:05:07;2.20;;;1.80;;
9160;SDS011;4615;51.340;8.288;2023-06-14T08:07:34;4.07;;;1.80;;
9160;SDS011;4615;51.340;8.288;2023-06-14T08:10:00;3.05;;;2.10;;
9160;SDS011;4615;51.340;8.288;2023-06-14T08:12:27;1.93;;;1.70;;
9160;SDS011;4615;51.340;8.288;2023-06-14T08:14:54;2.33;;;1.70;;
9160;SDS011;4615;51.340;8.288;2023-06-14T08:17:21;2.20;;;1.60;;
9160;SDS011;4615;51.340;8.288;2023-06-14T08:19:47;3.78;;;1.95;;
9160;SDS011;4615;51.340;8.288;2023-06-14T08:22:14;2.23;;;1.90;;
9160;SDS011;4615;51.340;8.288;2023-06-14T08:24:40;1.77;;;1.67;;
9160;SDS011;4615;51.340;8.288;2023-06-14T08:27:07;3.10;;;1.80;;
9160;SDS011;4615;51.340;8.288;2023-06-14T08:29:34;2.80;;;1.80;;
9160;SDS011;4615;51.340;8.288;2023-06-14T08:32:01;2.55;;;1.77;;
9160;SDS011;4615;51.340;8.288;2023-06-14T08:34:28;3.05;;;1.65;;
9160;SDS011;4615;51.340;8.288;2023-06-14T08:36:54;2.60;;;1.80;;
9160;SDS011;4615;51.340;8.288;2023-06-14T08:39:21;1.95;;;1.75;;
9160;SDS011;4615;51.340;8.288;2023-06-14T08:41:47;2.35;;;1.70;;
9160;SDS011;4615;51.340;8.288;2023-06-14T08:44:14;3.37;;;1.90;;
9160;SDS011;4615;51.340;8.288;2023-06-14T08:46:40;3.80;;;1.80;;
9160;SDS011;4615;51.340;8.288;2023-06-14T08:49:09;2.60;;;1.83;;
9160;SDS011;4615;51.340;8.288;2023-06-14T08:51:37;2.30;;;2.10;;
9160;SDS011;4615;51.340;8.288;2023-06-14T08:54:05;2.38;;;2.00;;
9160;SDS011;4615;51.340;8.288;2023-06-14T08:56:32;3.28;;;1.95;;
9160;SDS011;4615;51.340;8.288;2023-06-14T08:59:00;2.47;;;1.80;;
9160;SDS011;4615;51.340;8.288;2023-06-14T09:01:28;2.65;;;2.00;;
9160;SDS011;4615;51.340;8.288;2023-06-14T09:03:54;2.63;;;2.15;;
9160;SDS011;4615;51.340;8.288;2023-06-14T09:06:23;3.20;;;2.13;;
9160;SDS011;4615;51.340;8.288;2023-06-14T09:08:50;2.50;;;2.08;;
9160;SDS011;4615;51.340;8.288;2023-06-14T09:11:17;3.05;;;2.05;;
9160;SDS011;4615;51.340;8.288;2023-06-14T09:13:44;2.30;;;2.10;;
9160;SDS011;4615;51.340;8.288;2023-06-14T09:16:11;2.65;;;2.25;;
9160;SDS011;4615;51.340;8.288;2023-06-14T09:18:39;2.35;;;2.00;;
9160;SDS011;4615;51.340;8.288;2023-06-14T09:21:08;2.35;;;2.13;;
9160;SDS011;4615;51.340;8.288;2023-06-14T09:23:37;3.60;;;2.20;;
9160;SDS011;4615;51.340;8.288;2023-06-14T09:26:07;3.80;;;2.50;;
9160;SDS011;4615;51.340;8.288;2023-06-14T09:28:34;3.03;;;2.35;;
9160;SDS011;4615;51.340;8.288;2023-06-14T09:31:00;2.70;;;2.40;;
9160;SDS011;4615;51.340;8.288;2023-06-14T09:33:27;2.33;;;2.07;;
9160;SDS011;4615;51.340;8.288;2023-06-14T09:35:54;3.83;;;2.17;;
9160;SDS011;4615;51.340;8.288;2023-06-14T09:38:20;2.70;;;2.10;;
9160;SDS011;4615;51.340;8.288;2023-06-14T09:40:48;3.33;;;2.10;;
9160;SDS011;4615;51.340;8.288;2023-06-14T09:43:15;3.50;;;2.03;;
9160;SDS011;4615;51.340;8.288;2023-06-14T09:45:42;3.63;;;2.25;;
9160;SDS011;4615;51.340;8.288;2023-06-14T09:48:11;3.30;;;2.20;;
9160;SDS011;4615;51.340;8.288;2023-06-14T09:50:42;3.38;;;2.10;;
9160;SDS011;4615;51.340;8.288;2023-06-14T09:53:10;3.35;;;2.20;;
9160;SDS011;4615;51.340;8.288;2023-06-14T09:55:36;2.50;;;2.30;;
9160;SDS011;4615;51.340;8.288;2023-06-14T09:58:06;2.85;;;2.22;;
9160;SDS011;4615;51.340;8.288;2023-06-14T10:00:33;2.42;;;2.20;;
9160;SDS011;4615;51.340;8.288;2023-06-14T10:03:00;2.47;;;2.03;;
9160;SDS011;4615;51.340;8.288;2023-06-14T10:05:28;2.53;;;2.15;;
9160;SDS011;4615;51.340;8.288;2023-06-14T10:07:55;2.90;;;2.40;;
9160;SDS011;4615;51.340;8.288;2023-06-14T10:10:25;3.17;;;2.40;;
9160;SDS011;4615;51.340;8.288;2023-06-14T10:12:52;3.60;;;2.25;;
9160;SDS011;4615;51.340;8.288;2023-06-14T10:15:20;2.28;;;2.10;;
9160;SDS011;4615;51.340;8.288;2023-06-14T10:17:50;2.50;;;2.15;;
9160;SDS011;4615;51.340;8.288;2023-06-14T10:20:21;3.20;;;2.13;;
9160;SDS011;4615;51.340;8.288;2023-06-14T10:22:51;2.83;;;2.15;;
9160;SDS011;4615;51.340;8.288;2023-06-14T10:25:26;2.22;;;2.00;;
9160;SDS011;4615;51.340;8.288;2023-06-14T10:27:53;2.65;;;2.15;;
9160;SDS011;4615;51.340;8.288;2023-06-14T10:30:25;2.58;;;2.30;;
9160;SDS011;4615;51.340;8.288;2023-06-14T10:33:04;3.83;;;2.20;;
9160;SDS011;4615;51.340;8.288;2023-06-14T10:35:31;2.35;;;2.10;;
9160;SDS011;4615;51.340;8.288;2023-06-14T10:38:05;2.55;;;2.05;;
9160;SDS011;4615;51.340;8.288;2023-06-14T10:40:32;4.28;;;2.15;;
9160;SDS011;4615;51.340;8.288;2023-06-14T10:42:59;3.00;;;2.28;;
9160;SDS011;4615;51.340;8.288;2023-06-14T10:45:27;3.70;;;2.43;;
9160;SDS011;4615;51.340;8.288;2023-06-14T10:47:56;3.45;;;2.28;;
9160;SDS011;4615;51.340;8.288;2023-06-14T10:50:27;4.20;;;2.38;;
9160;SDS011;4615;51.340;8.288;2023-06-14T10:52:54;2.63;;;2.20;;
9160;SDS011;4615;51.340;8.288;2023-06-14T10:55:21;2.37;;;2.10;;
9160;SDS011;4615;51.340;8.288;2023-06-14T10:57:48;3.08;;;2.30;;
9160;SDS011;4615;51.340;8.288;2023-06-14T11:00:17;3.70;;;2.30;;
9160;SDS011;4615;51.340;8.288;2023-06-14T11:05:42;3.55;;;2.30;;
9160;SDS011;4615;51.340;8.288;2023-06-14T11:08:21;4.22;;;2.20;;
9160;SDS011;4615;51.340;8.288;2023-06-14T11:10:52;2.83;;;2.20;;
9160;SDS011;4615;51.340;8.288;2023-06-14T11:13:20;3.23;;;2.30;;
9160;SDS011;4615;51.340;8.288;2023-06-14T11:15:50;3.10;;;2.10;;
9160;SDS011;4615;51.340;8.288;2023-06-14T11:18:18;2.58;;;2.30;;
9160;SDS011;4615;51.340;8.288;2023-06-14T11:20:46;4.40;;;3.95;;
9160;SDS011;4615;51.340;8.288;2023-06-14T11:23:12;3.40;;;2.40;;
9160;SDS011;4615;51.340;8.288;2023-06-14T11:25:39;3.05;;;2.80;;
9160;SDS011;4615;51.340;8.288;2023-06-14T11:28:05;6.40;;;4.40;;
9160;SDS011;4615;51.340;8.288;2023-06-14T11:30:32;2.90;;;2.70;;
9160;SDS011;4615;51.340;8.288;2023-06-14T11:32:58;2.67;;;2.22;;
9160;SDS011;4615;51.340;8.288;2023-06-14T11:35:25;3.47;;;2.50;;
9160;SDS011;4615;51.340;8.288;2023-06-14T11:37:54;2.90;;;2.60;;
9160;SDS011;4615;51.340;8.288;2023-06-14T11:40:23;2.40;;;2.03;;
9160;SDS011;4615;51.340;8.288;2023-06-14T11:42:50;2.20;;;2.00;;
9160;SDS011;4615;51.340;8.288;2023-06-14T11:45:18;2.58;;;2.22;;
9160;SDS011;4615;51.340;8.288;2023-06-14T11:47:44;4.50;;;2.30;;
9160;SDS011;4615;51.340;8.288;2023-06-14T11:50:10;3.10;;;2.30;;
9160;SDS011;4615;51.340;8.288;2023-06-14T11:52:37;3.95;;;2.30;;
9160;SDS011;4615;51.340;8.288;2023-06-14T11:55:05;2.85;;;2.33;;
9160;SDS011;4615;51.340;8.288;2023-06-14T11:57:33;2.40;;;2.20;;
9160;SDS011;4615;51.340;8.288;2023-06-14T12:00:00;3.70;;;2.35;;
9160;SDS011;4615;51.340;8.288;2023-06-14T12:02:31;3.08;;;2.50;;
9160;SDS011;4615;51.340;8.288;2023-06-14T12:05:03;2.72;;;2.42;;
9160;SDS011;4615;51.340;8.288;2023-06-14T12:07:30;3.10;;;2.33;;
9160;SDS011;4615;51.340;8.288;2023-06-14T12:10:08;2.40;;;2.20;;
9160;SDS011;4615;51.340;8.288;2023-06-14T12:12:36;2.50;;;2.30;;
9160;SDS011;4615;51.340;8.288;2023-06-14T12:15:03;2.85;;;2.50;;
9160;SDS011;4615;51.340;8.288;2023-06-14T12:17:31;3.13;;;2.28;;
9160;SDS011;4615;51.340;8.288;2023-06-14T12:19:58;3.17;;;2.38;;
9160;SDS011;4615;51.340;8.288;2023-06-14T12:22:24;4.75;;;2.45;;
9160;SDS011;4615;51.340;8.288;2023-06-14T12:24:51;2.70;;;2.50;;
9160;SDS011;4615;51.340;8.288;2023-06-14T12:27:19;2.67;;;2.30;;
9160;SDS011;4615;51.340;8.288;2023-06-14T12:29:58;3.35;;;2.28;;
9160;SDS011;4615;51.340;8.288;2023-06-14T12:32:24;3.05;;;2.60;;
9160;SDS011;4615;51.340;8.288;2023-06-14T12:34:51;2.90;;;2.50;;
9160;SDS011;4615;51.340;8.288;2023-06-14T12:37:17;3.20;;;2.53;;
9160;SDS011;4615;51.340;8.288;2023-06-14T12:39:46;3.72;;;2.55;;
9160;SDS011;4615;51.340;8.288;2023-06-14T12:42:13;4.45;;;2.72;;
9160;SDS011;4615;51.340;8.288;2023-06-14T12:44:42;3.28;;;2.63;;
9160;SDS011;4615;51.340;8.288;2023-06-14T12:47:08;3.63;;;2.60;;
9160;SDS011;4615;51.340;8.288;2023-06-14T12:49:35;4.27;;;2.60;;
9160;SDS011;4615;51.340;8.288;2023-06-14T12:52:01;3.13;;;2.60;;
9160;SDS011;4615;51.340;8.288;2023-06-14T12:54:28;2.97;;;2.60;;
9160;SDS011;4615;51.340;8.288;2023-06-14T12:56:54;4.13;;;2.70;;
9160;SDS011;4615;51.340;8.288;2023-06-14T12:59:21;2.65;;;2.45;;
9160;SDS011;4615;51.340;8.288;2023-06-14T13:01:49;3.67;;;2.45;;
9160;SDS011;4615;51.340;8.288;2023-06-14T13:04:15;2.60;;;2.40;;
9160;SDS011;4615;51.340;8.288;2023-06-14T13:06:42;3.65;;;2.70;;
9160;SDS011;4615;51.340;8.288;2023-06-14T13:09:08;2.95;;;2.65;;
9160;SDS011;4615;51.340;8.288;2023-06-14T13:11:36;3.08;;;2.50;;
9160;SDS011;4615;51.340;8.288;2023-06-14T13:14:02;3.38;;;2.50;;
9160;SDS011;4615;51.340;8.288;2023-06-14T13:16:28;3.33;;;2.78;;
9160;SDS011;4615;51.340;8.288;2023-06-14T13:18:56;3.30;;;2.60;;
9160;SDS011;4615;51.340;8.288;2023-06-14T13:21:23;2.88;;;2.30;;
9160;SDS011;4615;51.340;8.288;2023-06-14T13:23:50;4.55;;;2.70;;
9160;SDS011;4615;51.340;8.288;2023-06-14T13:26:16;3.50;;;2.47;;
9160;SDS011;4615;51.340;8.288;2023-06-14T13:28:43;2.67;;;2.47;;
9160;SDS011;4615;51.340;8.288;2023-06-14T13:31:09;3.00;;;2.40;;
9160;SDS011;4615;51.340;8.288;2023-06-14T13:33:36;4.68;;;2.75;;
9160;SDS011;4615;51.340;8.288;2023-06-14T13:36:04;2.78;;;2.58;;
9160;SDS011;4615;51.340;8.288;2023-06-14T13:38:30;4.07;;;2.50;;
9160;SDS011;4615;51.340;8.288;2023-06-14T13:40:57;3.58;;;2.50;;
9160;SDS011;4615;51.340;8.288;2023-06-14T13:43:23;3.55;;;2.40;;
9160;SDS011;4615;51.340;8.288;2023-06-14T13:45:50;2.70;;;2.40;;
9160;SDS011;4615;51.340;8.288;2023-06-14T13:48:16;2.60;;;2.40;;
9160;SDS011;4615;51.340;8.288;2023-06-14T13:50:43;2.60;;;2.40;;
9160;SDS011;4615;51.340;8.288;2023-06-14T13:53:12;4.57;;;2.50;;
9160;SDS011;4615;51.340;8.288;2023-06-14T13:55:39;3.80;;;2.40;;
9160;SDS011;4615;51.340;8.288;2023-06-14T13:58:05;3.80;;;2.40;;
9160;SDS011;4615;51.340;8.288;2023-06-14T14:00:32;3.33;;;2.67;;
9160;SDS011;4615;51.340;8.288;2023-06-14T14:02:58;3.55;;;2.50;;
9160;SDS011;4615;51.340;8.288;2023-06-14T14:05:25;4.50;;;2.60;;
9160;SDS011;4615;51.340;8.288;2023-06-14T14:07:54;2.55;;;2.35;;
9160;SDS011;4615;51.340;8.288;2023-06-14T14:10:23;2.60;;;2.40;;
9160;SDS011;4615;51.340;8.288;2023-06-14T14:12:50;2.63;;;2.30;;
9160;SDS011;4615;51.340;8.288;2023-06-14T14:15:20;3.95;;;2.60;;
9160;SDS011;4615;51.340;8.288;2023-06-14T14:17:47;3.00;;;2.50;;
9160;SDS011;4615;51.340;8.288;2023-06-14T14:20:13;4.60;;;2.50;;
9160;SDS011;4615;51.340;8.288;2023-06-14T14:22:41;3.17;;;2.40;;
9160;SDS011;4615;51.340;8.288;2023-06-14T14:25:08;3.05;;;2.58;;
9160;SDS011;4615;51.340;8.288;2023-06-14T14:27:36;2.60;;;2.33;;
9160;SDS011;4615;51.340;8.288;2023-06-14T14:30:02;4.28;;;2.40;;
9160;SDS011;4615;51.340;8.288;2023-06-14T14:32:29;4.40;;;2.55;;
9160;SDS011;4615;51.340;8.288;2023-06-14T14:34:56;2.90;;;2.40;;
9160;SDS011;4615;51.340;8.288;2023-06-14T14:37:23;3.28;;;2.55;;
9160;SDS011;4615;51.340;8.288;2023-06-14T14:39:49;4.45;;;2.50;;
9160;SDS011;4615;51.340;8.288;2023-06-14T14:42:16;3.70;;;2.40;;
9160;SDS011;4615;51.340;8.288;2023-06-14T14:44:44;4.25;;;2.50;;
9160;SDS011;4615;51.340;8.288;2023-06-14T14:47:11;2.60;;;2.40;;
9160;SDS011;4615;51.340;8.288;2023-06-14T14:49:37;3.10;;;2.80;;
9160;SDS011;4615;51.340;8.288;2023-06-14T14:52:04;3.30;;;2.45;;
9160;SDS011;4615;51.340;8.288;2023-06-14T14:54:31;2.30;;;2.10;;
9160;SDS011;4615;51.340;8.288;2023-06-14T14:56:57;3.00;;;2.60;;
9160;SDS011;4615;51.340;8.288;2023-06-14T14:59:23;2.50;;;2.25;;
9160;SDS011;4615;51.340;8.288;2023-06-14T15:01:51;2.50;;;2.30;;
9160;SDS011;4615;51.340;8.288;2023-06-14T15:04:17;2.75;;;2.40;;
9160;SDS011;4615;51.340;8.288;2023-06-14T15:06:44;2.73;;;2.40;;
9160;SDS011;4615;51.340;8.288;2023-06-14T15:09:10;2.80;;;2.30;;
9160;SDS011;4615;51.340;8.288;2023-06-14T15:11:37;3.30;;;2.50;;
9160;SDS011;4615;51.340;8.288;2023-06-14T15:14:03;3.40;;;2.35;;
9160;SDS011;4615;51.340;8.288;2023-06-14T15:16:30;2.72;;;2.50;;
9160;SDS011;4615;51.340;8.288;2023-06-14T15:19:00;3.65;;;2.35;;